TBD775 ENMH-ENHV
Flight info
| Callsign | TBD775 |
|---|---|
| Flight time | 0h 21m |
| Altitude | 4000 |
| Route | HLN |
| Aircraft | TBM8/L-SBDFGRWY/G |
Departure
| Time | 2026-05-01 13:47 |
|---|---|
| Airport | Mehamn Airport (ENMH) |
Arrival
| Time | 2026-05-01 14:08 |
|---|---|
| Airport | Honningsvåg Airport, Valan (ENHV) |
| Time | Latitude | Longitude | Altitude | Speed | Heading |
|---|---|---|---|---|---|
| 2026-05-01 13:40 | 71.02759 | 27.82858 | 37 ft | 0 kts | 5° |
| 2026-05-01 13:44 | 71.02775 | 27.82863 | 37 ft | 11 kts | 360° |
| 2026-05-01 13:45 | 71.02809 | 27.82634 | 31 ft | 17 kts | 349° |
| 2026-05-01 13:45 | 71.02928 | 27.82642 | 27 ft | 19 kts | 5° |
| 2026-05-01 13:45 | 71.03057 | 27.82675 | 27 ft | 19 kts | 1° |
| 2026-05-01 13:45 | 71.03213 | 27.82687 | 32 ft | 23 kts | 356° |
| 2026-05-01 13:46 | 71.03340 | 27.82718 | 35 ft | 14 kts | 27° |
| 2026-05-01 13:46 | 71.03372 | 27.82730 | 36 ft | 3 kts | 220° |
| 2026-05-01 13:46 | 71.03356 | 27.82712 | 36 ft | 2 kts | 172° |
| 2026-05-01 13:46 | 71.03353 | 27.82713 | 36 ft | 0 kts | 181° |
| 2026-05-01 13:47 | 71.03344 | 27.82712 | 35 ft | 14 kts | 182° |
| 2026-05-01 13:47 | 71.02985 | 27.82664 | 25 ft | 86 kts | 181° |
| 2026-05-01 13:47 | 71.02269 | 27.82539 | 235 ft | 115 kts | 192° |
| 2026-05-01 13:47 | 71.01461 | 27.82279 | 769 ft | 113 kts | 189° |
| 2026-05-01 13:48 | 71.00673 | 27.82661 | 1340 ft | 126 kts | 166° |
| 2026-05-01 13:48 | 70.99845 | 27.84196 | 1840 ft | 149 kts | 147° |
| 2026-05-01 13:48 | 70.99346 | 27.87251 | 2311 ft | 180 kts | 94° |
| 2026-05-01 13:48 | 70.99750 | 27.91081 | 2585 ft | 200 kts | 53° |
| 2026-05-01 13:49 | 71.00508 | 27.94298 | 3443 ft | 172 kts | 40° |
| 2026-05-01 13:49 | 71.01469 | 27.96549 | 3908 ft | 174 kts | 14° |
| 2026-05-01 13:49 | 71.02643 | 27.96479 | 3980 ft | 178 kts | 326° |
| 2026-05-01 13:49 | 71.03492 | 27.93733 | 4015 ft | 178 kts | 297° |
| 2026-05-01 13:50 | 71.03903 | 27.90006 | 3722 ft | 190 kts | 284° |
| 2026-05-01 13:50 | 71.04296 | 27.86271 | 3952 ft | 177 kts | 278° |
| 2026-05-01 13:50 | 71.04276 | 27.82419 | 3828 ft | 185 kts | 265° |
| 2026-05-01 13:50 | 71.04105 | 27.78623 | 4054 ft | 177 kts | 263° |
| 2026-05-01 13:51 | 71.03924 | 27.74834 | 4009 ft | 184 kts | 262° |
| 2026-05-01 13:51 | 71.03766 | 27.70846 | 3960 ft | 189 kts | 263° |
| 2026-05-01 13:51 | 71.03549 | 27.66945 | 4014 ft | 187 kts | 261° |
| 2026-05-01 13:51 | 71.03489 | 27.62804 | 3531 ft | 203 kts | 276° |
| 2026-05-01 13:52 | 71.03775 | 27.58722 | 3825 ft | 182 kts | 282° |
| 2026-05-01 13:52 | 71.04098 | 27.54996 | 3977 ft | 184 kts | 283° |
| 2026-05-01 13:52 | 71.04436 | 27.51152 | 4005 ft | 187 kts | 281° |
| 2026-05-01 13:52 | 71.04733 | 27.47222 | 4080 ft | 190 kts | 281° |
| 2026-05-01 13:53 | 71.04985 | 27.43200 | 4073 ft | 193 kts | 278° |
| 2026-05-01 13:53 | 71.05409 | 27.34925 | 4004 ft | 193 kts | 277° |
| 2026-05-01 13:53 | 71.05621 | 27.30860 | 4035 ft | 190 kts | 277° |
| 2026-05-01 13:54 | 71.05833 | 27.26813 | 3999 ft | 192 kts | 278° |
| 2026-05-01 13:54 | 71.06069 | 27.22762 | 3951 ft | 194 kts | 279° |
| 2026-05-01 13:54 | 71.06343 | 27.18709 | 3918 ft | 194 kts | 280° |
| 2026-05-01 13:54 | 71.06615 | 27.14689 | 4009 ft | 189 kts | 280° |
| 2026-05-01 13:55 | 71.06866 | 27.10722 | 4039 ft | 189 kts | 279° |
| 2026-05-01 13:55 | 71.07088 | 27.06737 | 4048 ft | 190 kts | 278° |
| 2026-05-01 13:55 | 71.07275 | 27.02707 | 4032 ft | 190 kts | 276° |
| 2026-05-01 13:55 | 71.07449 | 26.98675 | 4013 ft | 192 kts | 277° |
| 2026-05-01 13:56 | 71.07657 | 26.94614 | 3978 ft | 192 kts | 278° |
| 2026-05-01 13:56 | 71.07878 | 26.90561 | 3975 ft | 192 kts | 278° |
| 2026-05-01 13:56 | 71.08131 | 26.86524 | 3982 ft | 191 kts | 280° |
| 2026-05-01 13:56 | 71.08395 | 26.82531 | 4024 ft | 190 kts | 279° |
| 2026-05-01 13:57 | 71.08653 | 26.78524 | 4030 ft | 190 kts | 279° |
| 2026-05-01 13:57 | 71.08890 | 26.74508 | 4013 ft | 191 kts | 278° |
| 2026-05-01 13:57 | 71.09136 | 26.70465 | 3996 ft | 192 kts | 279° |
| 2026-05-01 13:57 | 71.09399 | 26.66436 | 4018 ft | 191 kts | 279° |
| 2026-05-01 13:58 | 71.09653 | 26.62448 | 4095 ft | 188 kts | 279° |
| 2026-05-01 13:58 | 71.09922 | 26.58443 | 4049 ft | 192 kts | 279° |
| 2026-05-01 13:58 | 71.10161 | 26.54297 | 4008 ft | 194 kts | 277° |
| 2026-05-01 13:58 | 71.10318 | 26.50192 | 4075 ft | 191 kts | 276° |
| 2026-05-01 13:59 | 71.10483 | 26.46082 | 4006 ft | 193 kts | 277° |
| 2026-05-01 13:59 | 71.10668 | 26.42003 | 4042 ft | 190 kts | 277° |
| 2026-05-01 13:59 | 71.10864 | 26.37986 | 4031 ft | 190 kts | 278° |
| 2026-05-01 13:59 | 71.11083 | 26.33961 | 4019 ft | 190 kts | 279° |
| 2026-05-01 14:00 | 71.11324 | 26.29991 | 4102 ft | 184 kts | 279° |
| 2026-05-01 14:00 | 71.11593 | 26.26088 | 3845 ft | 184 kts | 282° |
| 2026-05-01 14:00 | 71.11858 | 26.22325 | 3509 ft | 175 kts | 279° |
| 2026-05-01 14:00 | 71.12059 | 26.18674 | 3247 ft | 170 kts | 275° |
| 2026-05-01 14:01 | 71.12096 | 26.14839 | 3021 ft | 188 kts | 257° |
| 2026-05-01 14:01 | 71.11335 | 26.11444 | 2888 ft | 200 kts | 228° |
| 2026-05-01 14:01 | 71.10163 | 26.09038 | 2822 ft | 207 kts | 210° |
| 2026-05-01 14:01 | 71.08737 | 26.08143 | 2935 ft | 207 kts | 194° |
| 2026-05-01 14:02 | 71.07308 | 26.07703 | 2861 ft | 199 kts | 195° |
| 2026-05-01 14:02 | 71.06086 | 26.07289 | 2499 ft | 155 kts | 197° |
| 2026-05-01 14:02 | 71.05120 | 26.06948 | 2202 ft | 128 kts | 202° |
| 2026-05-01 14:02 | 71.04268 | 26.06525 | 1793 ft | 119 kts | 204° |
| 2026-05-01 14:03 | 71.03474 | 26.06074 | 1441 ft | 115 kts | 204° |
| 2026-05-01 14:03 | 71.02730 | 26.05534 | 1110 ft | 105 kts | 209° |
| 2026-05-01 14:03 | 71.01961 | 26.04849 | 769 ft | 119 kts | 205° |
| 2026-05-01 14:03 | 71.01386 | 26.03674 | 546 ft | 98 kts | 232° |
| 2026-05-01 14:04 | 71.00999 | 26.01842 | 360 ft | 98 kts | 259° |
| 2026-05-01 14:04 | 71.00968 | 25.99859 | 89 ft | 86 kts | 269° |
| 2026-05-01 14:04 | 71.01017 | 25.97999 | 87 ft | 103 kts | 278° |
| 2026-05-01 14:04 | 71.01188 | 25.96601 | 332 ft | 104 kts | 281° |
| 2026-05-01 14:05 | 71.01671 | 25.94590 | 1351 ft | 99 kts | 324° |
| 2026-05-01 14:05 | 71.02480 | 25.94819 | 1819 ft | 138 kts | 21° |
| 2026-05-01 14:05 | 71.03158 | 25.97358 | 2056 ft | 168 kts | 68° |
| 2026-05-01 14:05 | 71.03214 | 26.01000 | 1976 ft | 171 kts | 108° |
| 2026-05-01 14:06 | 71.02574 | 26.03575 | 1535 ft | 139 kts | 163° |
| 2026-05-01 14:06 | 71.01740 | 26.04007 | 1218 ft | 107 kts | 202° |
| 2026-05-01 14:06 | 71.01183 | 26.03113 | 927 ft | 82 kts | 235° |
| 2026-05-01 14:06 | 71.00979 | 26.01468 | 467 ft | 96 kts | 264° |
| 2026-05-01 14:07 | 71.00993 | 25.99521 | 118 ft | 78 kts | 271° |
| 2026-05-01 14:07 | 71.01464 | 25.98264 | 573 ft | 110 kts | 345° |
| 2026-05-01 14:07 | 71.02050 | 26.00119 | 848 ft | 146 kts | 95° |
| 2026-05-01 14:08 | 71.00949 | 26.01469 | 775 ft | 86 kts | 260° |
| 2026-05-01 14:08 | 71.00972 | 25.99716 | 132 ft | 83 kts | 267° |
| 2026-05-01 14:08 | 71.00969 | 25.98284 | 32 ft | 52 kts | 269° |
| 2026-05-01 14:08 | 71.00969 | 25.97435 | 29 ft | 25 kts | 274° |
| 2026-05-01 14:09 | 71.00968 | 25.97382 | 28 ft | 27 kts | 80° |
| 2026-05-01 14:09 | 71.00948 | 25.97817 | 28 ft | 13 kts | 173° |
| 2026-05-01 14:09 | 71.00897 | 25.97816 | 32 ft | 2 kts | 212° |
| 2026-05-01 14:09 | 71.00897 | 25.97815 | 32 ft | 0 kts | 218° |